sensor_id;sensor_type;location;lat;lon;timestamp;P1;P2;P0
80289;PMS7003;69592;44.804;-0.550;2023-07-29T00:00:31;2.25;2.25;1.75
80289;PMS7003;69592;44.804;-0.550;2023-07-29T00:02:56;3.25;3.25;2.75
80289;PMS7003;69592;44.804;-0.550;2023-07-29T00:05:22;3.00;3.00;3.00
80289;PMS7003;69592;44.804;-0.550;2023-07-29T00:07:47;4.00;4.00;3.00
80289;PMS7003;69592;44.804;-0.550;2023-07-29T00:10:12;5.50;5.50;4.00
80289;PMS7003;69592;44.804;-0.550;2023-07-29T00:12:38;6.50;6.50;4.00
80289;PMS7003;69592;44.804;-0.550;2023-07-29T00:15:03;6.50;4.50;3.50
80289;PMS7003;69592;44.804;-0.550;2023-07-29T00:17:29;8.00;6.75;4.50
80289;PMS7003;69592;44.804;-0.550;2023-07-29T00:19:54;5.00;5.00;3.25
80289;PMS7003;69592;44.804;-0.550;2023-07-29T00:22:20;7.75;5.75;5.00
80289;PMS7003;69592;44.804;-0.550;2023-07-29T00:24:50;4.25;4.25;3.75
80289;PMS7003;69592;44.804;-0.550;2023-07-29T00:27:16;5.50;5.50;4.25
80289;PMS7003;69592;44.804;-0.550;2023-07-29T00:29:42;5.25;5.25;3.75
80289;PMS7003;69592;44.804;-0.550;2023-07-29T00:32:07;6.25;4.50;3.75
80289;PMS7003;69592;44.804;-0.550;2023-07-29T00:34:32;6.50;4.25;3.50
80289;PMS7003;69592;44.804;-0.550;2023-07-29T00:36:58;5.00;5.00;4.25
80289;PMS7003;69592;44.804;-0.550;2023-07-29T00:39:23;5.50;5.00;4.50
80289;PMS7003;69592;44.804;-0.550;2023-07-29T00:41:49;6.25;5.25;4.25
80289;PMS7003;69592;44.804;-0.550;2023-07-29T00:44:14;4.50;4.50;3.50
80289;PMS7003;69592;44.804;-0.550;2023-07-29T00:46:40;5.25;5.25;4.50
80289;PMS7003;69592;44.804;-0.550;2023-07-29T00:49:06;6.25;5.50;4.50
80289;PMS7003;69592;44.804;-0.550;2023-07-29T00:51:32;7.75;6.25;4.75
80289;PMS7003;69592;44.804;-0.550;2023-07-29T00:53:57;6.75;6.25;4.75
80289;PMS7003;69592;44.804;-0.550;2023-07-29T00:56:22;6.50;6.50;5.25
80289;PMS7003;69592;44.804;-0.550;2023-07-29T00:58:48;8.00;6.75;5.00
80289;PMS7003;69592;44.804;-0.550;2023-07-29T01:01:13;6.50;6.50;5.50
80289;PMS7003;69592;44.804;-0.550;2023-07-29T01:03:39;4.50;4.50;3.50
80289;PMS7003;69592;44.804;-0.550;2023-07-29T01:06:14;5.25;5.25;4.50
80289;PMS7003;69592;44.804;-0.550;2023-07-29T01:11:24;7.25;6.25;4.25
80289;PMS7003;69592;44.804;-0.550;2023-07-29T01:13:54;5.25;5.25;3.50
80289;PMS7003;69592;44.804;-0.550;2023-07-29T01:16:39;5.25;5.25;4.25
80289;PMS7003;69592;44.804;-0.550;2023-07-29T01:19:14;5.00;4.75;4.25
80289;PMS7003;69592;44.804;-0.550;2023-07-29T01:22:02;6.75;4.50;3.50
80289;PMS7003;69592;44.804;-0.550;2023-07-29T01:24:28;7.50;5.50;4.50
80289;PMS7003;69592;44.804;-0.550;2023-07-29T01:26:53;7.00;7.00;5.00
80289;PMS7003;69592;44.804;-0.550;2023-07-29T01:29:18;4.75;4.75;3.50
80289;PMS7003;69592;44.804;-0.550;2023-07-29T01:31:44;8.75;6.25;4.50
80289;PMS7003;69592;44.804;-0.550;2023-07-29T01:34:18;8.25;6.75;5.00
80289;PMS7003;69592;44.804;-0.550;2023-07-29T01:37:05;8.00;8.00;6.00
80289;PMS7003;69592;44.804;-0.550;2023-07-29T01:39:36;8.25;6.25;4.75
80289;PMS7003;69592;44.804;-0.550;2023-07-29T01:42:03;6.75;6.75;5.75
80289;PMS7003;69592;44.804;-0.550;2023-07-29T01:44:28;6.25;6.00;5.00
80289;PMS7003;69592;44.804;-0.550;2023-07-29T01:46:57;6.00;6.00;4.00
80289;PMS7003;69592;44.804;-0.550;2023-07-29T01:49:24;9.75;8.00;6.00
80289;PMS7003;69592;44.804;-0.550;2023-07-29T01:51:49;7.25;6.00;5.00
80289;PMS7003;69592;44.804;-0.550;2023-07-29T01:54:15;9.00;8.50;6.50
80289;PMS7003;69592;44.804;-0.550;2023-07-29T01:56:40;7.75;7.75;5.00
80289;PMS7003;69592;44.804;-0.550;2023-07-29T01:59:08;9.50;9.50;7.00
80289;PMS7003;69592;44.804;-0.550;2023-07-29T02:01:34;9.50;7.75;6.00
80289;PMS7003;69592;44.804;-0.550;2023-07-29T02:03:59;7.75;7.75;5.75
80289;PMS7003;69592;44.804;-0.550;2023-07-29T02:06:24;10.50;10.50;7.00
80289;PMS7003;69592;44.804;-0.550;2023-07-29T02:08:52;6.50;6.50;5.25
80289;PMS7003;69592;44.804;-0.550;2023-07-29T02:11:18;10.50;9.25;7.00
80289;PMS7003;69592;44.804;-0.550;2023-07-29T02:13:45;9.00;8.00;6.50
80289;PMS7003;69592;44.804;-0.550;2023-07-29T02:16:10;10.00;10.00;6.50
80289;PMS7003;69592;44.804;-0.550;2023-07-29T02:18:36;8.00;7.00;5.33
80289;PMS7003;69592;44.804;-0.550;2023-07-29T02:21:02;8.67;7.00;6.33
80289;PMS7003;69592;44.804;-0.550;2023-07-29T02:23:28;8.75;7.75;6.00
80289;PMS7003;69592;44.804;-0.550;2023-07-29T02:25:53;7.00;7.00;6.00
80289;PMS7003;69592;44.804;-0.550;2023-07-29T02:28:19;9.50;8.50;6.75
80289;PMS7003;69592;44.804;-0.550;2023-07-29T02:30:44;9.50;8.00;6.00
80289;PMS7003;69592;44.804;-0.550;2023-07-29T02:33:10;9.75;9.75;7.50
80289;PMS7003;69592;44.804;-0.550;2023-07-29T02:35:35;9.50;8.75;6.75
80289;PMS7003;69592;44.804;-0.550;2023-07-29T02:38:00;10.25;10.25;8.00
80289;PMS7003;69592;44.804;-0.550;2023-07-29T02:40:26;10.50;9.25;6.50
80289;PMS7003;69592;44.804;-0.550;2023-07-29T02:42:51;8.50;8.50;6.75
80289;PMS7003;69592;44.804;-0.550;2023-07-29T02:45:17;10.00;10.00;8.00
80289;PMS7003;69592;44.804;-0.550;2023-07-29T02:47:42;11.25;8.50;6.75
80289;PMS7003;69592;44.804;-0.550;2023-07-29T02:50:11;13.00;11.25;8.00
80289;PMS7003;69592;44.804;-0.550;2023-07-29T02:52:36;7.75;7.75;6.75
80289;PMS7003;69592;44.804;-0.550;2023-07-29T02:55:02;10.25;9.00;6.50
80289;PMS7003;69592;44.804;-0.550;2023-07-29T02:57:28;9.25;8.50;6.75
80289;PMS7003;69592;44.804;-0.550;2023-07-29T02:59:53;10.00;10.00;7.67
80289;PMS7003;69592;44.804;-0.550;2023-07-29T03:02:19;9.75;9.75;8.00
80289;PMS7003;69592;44.804;-0.550;2023-07-29T03:04:44;9.25;8.75;6.75
80289;PMS7003;69592;44.804;-0.550;2023-07-29T03:07:13;11.33;11.00;8.00
80289;PMS7003;69592;44.804;-0.550;2023-07-29T03:09:39;11.67;10.33;8.00
80289;PMS7003;69592;44.804;-0.550;2023-07-29T03:12:06;9.00;9.00;7.50
80289;PMS7003;69592;44.804;-0.550;2023-07-29T03:14:32;10.67;10.67;8.00
80289;PMS7003;69592;44.804;-0.550;2023-07-29T03:17:01;11.25;11.25;7.50
80289;PMS7003;69592;44.804;-0.550;2023-07-29T03:19:28;8.25;8.00;6.00
80289;PMS7003;69592;44.804;-0.550;2023-07-29T03:21:53;10.67;8.67;7.00
80289;PMS7003;69592;44.804;-0.550;2023-07-29T03:24:18;9.33;9.33;7.00
80289;PMS7003;69592;44.804;-0.550;2023-07-29T03:26:44;8.25;8.25;6.00
80289;PMS7003;69592;44.804;-0.550;2023-07-29T03:29:09;12.67;11.00;8.00
80289;PMS7003;69592;44.804;-0.550;2023-07-29T03:31:34;8.67;8.67;7.00
80289;PMS7003;69592;44.804;-0.550;2023-07-29T03:34:00;10.00;10.00;7.00
80289;PMS7003;69592;44.804;-0.550;2023-07-29T03:36:25;10.67;9.00;7.33
80289;PMS7003;69592;44.804;-0.550;2023-07-29T03:38:50;8.00;8.00;6.67
80289;PMS7003;69592;44.804;-0.550;2023-07-29T03:41:16;10.00;10.00;7.67
80289;PMS7003;69592;44.804;-0.550;2023-07-29T03:43:41;9.67;9.67;7.33
80289;PMS7003;69592;44.804;-0.550;2023-07-29T03:46:07;10.00;10.00;8.00
80289;PMS7003;69592;44.804;-0.550;2023-07-29T03:48:32;13.00;9.33;7.00
80289;PMS7003;69592;44.804;-0.550;2023-07-29T03:51:00;8.33;8.00;6.00
80289;PMS7003;69592;44.804;-0.550;2023-07-29T03:53:26;10.00;10.00;7.33
80289;PMS7003;69592;44.804;-0.550;2023-07-29T03:55:51;10.67;9.00;8.00
80289;PMS7003;69592;44.804;-0.550;2023-07-29T03:58:17;8.33;8.33;6.67
80289;PMS7003;69592;44.804;-0.550;2023-07-29T04:00:42;10.00;9.00;7.00
80289;PMS7003;69592;44.804;-0.550;2023-07-29T04:03:08;9.00;9.00;7.00
80289;PMS7003;69592;44.804;-0.550;2023-07-29T04:05:33;8.67;8.00;7.00
80289;PMS7003;69592;44.804;-0.550;2023-07-29T04:07:59;9.67;9.67;8.00
80289;PMS7003;69592;44.804;-0.550;2023-07-29T04:10:24;9.33;9.33;7.33
80289;PMS7003;69592;44.804;-0.550;2023-07-29T04:12:49;10.00;10.00;7.33
80289;PMS7003;69592;44.804;-0.550;2023-07-29T04:15:15;9.00;8.33;6.00
80289;PMS7003;69592;44.804;-0.550;2023-07-29T04:17:40;11.00;8.50;7.75
80289;PMS7003;69592;44.804;-0.550;2023-07-29T04:20:06;12.67;11.00;9.00
80289;PMS7003;69592;44.804;-0.550;2023-07-29T04:22:32;10.00;10.00;8.00
80289;PMS7003;69592;44.804;-0.550;2023-07-29T04:24:58;10.00;10.00;7.33
80289;PMS7003;69592;44.804;-0.550;2023-07-29T04:27:23;10.00;10.00;8.00
80289;PMS7003;69592;44.804;-0.550;2023-07-29T04:29:49;9.00;9.00;6.75
80289;PMS7003;69592;44.804;-0.550;2023-07-29T04:32:17;9.00;9.00;7.00
80289;PMS7003;69592;44.804;-0.550;2023-07-29T04:34:42;9.00;8.67;6.67
80289;PMS7003;69592;44.804;-0.550;2023-07-29T04:37:08;11.33;10.00;7.00
80289;PMS7003;69592;44.804;-0.550;2023-07-29T04:39:33;9.50;9.00;7.00
80289;PMS7003;69592;44.804;-0.550;2023-07-29T04:41:58;11.00;9.00;7.00
80289;PMS7003;69592;44.804;-0.550;2023-07-29T04:44:24;9.75;9.75;7.25
80289;PMS7003;69592;44.804;-0.550;2023-07-29T04:46:50;11.75;9.25;8.00
80289;PMS7003;69592;44.804;-0.550;2023-07-29T04:49:18;7.25;7.25;7.00
80289;PMS7003;69592;44.804;-0.550;2023-07-29T04:51:44;8.75;8.75;6.00
80289;PMS7003;69592;44.804;-0.550;2023-07-29T04:54:09;9.50;8.50;6.00
80289;PMS7003;69592;44.804;-0.550;2023-07-29T04:56:34;8.50;8.00;7.00
80289;PMS7003;69592;44.804;-0.550;2023-07-29T04:59:00;9.25;9.00;6.25
80289;PMS7003;69592;44.804;-0.550;2023-07-29T05:01:25;9.25;9.00;7.00
80289;PMS7003;69592;44.804;-0.550;2023-07-29T05:03:50;9.50;9.50;7.00
80289;PMS7003;69592;44.804;-0.550;2023-07-29T05:06:16;9.50;8.00;6.00
80289;PMS7003;69592;44.804;-0.550;2023-07-29T05:08:42;8.25;8.00;6.00
80289;PMS7003;69592;44.804;-0.550;2023-07-29T05:11:07;9.00;9.00;7.50
80289;PMS7003;69592;44.804;-0.550;2023-07-29T05:13:33;9.00;9.00;6.75
80289;PMS7003;69592;44.804;-0.550;2023-07-29T05:15:58;7.00;7.00;6.50
80289;PMS7003;69592;44.804;-0.550;2023-07-29T05:18:23;10.50;10.50;8.00
80289;PMS7003;69592;44.804;-0.550;2023-07-29T05:20:49;10.67;10.00;7.67
80289;PMS7003;69592;44.804;-0.550;2023-07-29T05:23:14;10.50;10.50;7.75
80289;PMS7003;69592;44.804;-0.550;2023-07-29T05:25:40;8.75;8.75;7.00
80289;PMS7003;69592;44.804;-0.550;2023-07-29T05:28:05;11.33;11.33;8.33
80289;PMS7003;69592;44.804;-0.550;2023-07-29T05:30:32;11.75;10.75;9.00
80289;PMS7003;69592;44.804;-0.550;2023-07-29T05:32:58;12.25;12.25;8.25
80289;PMS7003;69592;44.804;-0.550;2023-07-29T05:35:24;12.75;11.50;8.75
80289;PMS7003;69592;44.804;-0.550;2023-07-29T05:37:50;8.75;7.75;6.50
80289;PMS7003;69592;44.804;-0.550;2023-07-29T05:40:15;14.33;13.33;9.00
80289;PMS7003;69592;44.804;-0.550;2023-07-29T05:42:42;11.50;10.75;7.75
80289;PMS7003;69592;44.804;-0.550;2023-07-29T05:45:07;10.67;10.00;8.00
80289;PMS7003;69592;44.804;-0.550;2023-07-29T05:47:33;12.33;11.33;7.67
80289;PMS7003;69592;44.804;-0.550;2023-07-29T05:49:59;11.00;11.00;9.00
80289;PMS7003;69592;44.804;-0.550;2023-07-29T05:52:27;13.75;11.25;8.75
80289;PMS7003;69592;44.804;-0.550;2023-07-29T05:54:52;15.50;14.00;9.75
80289;PMS7003;69592;44.804;-0.550;2023-07-29T05:57:17;8.75;8.75;6.50
80289;PMS7003;69592;44.804;-0.550;2023-07-29T05:59:43;10.67;10.00;8.00
80289;PMS7003;69592;44.804;-0.550;2023-07-29T06:02:08;10.33;10.00;7.33
80289;PMS7003;69592;44.804;-0.550;2023-07-29T06:04:34;14.67;14.00;9.00
80289;PMS7003;69592;44.804;-0.550;2023-07-29T06:06:59;11.33;10.00;7.00
80289;PMS7003;69592;44.804;-0.550;2023-07-29T06:09:25;10.67;10.00;8.00
80289;PMS7003;69592;44.804;-0.550;2023-07-29T06:11:53;10.00;8.33;7.00
80289;PMS7003;69592;44.804;-0.550;2023-07-29T06:14:18;10.00;9.00;7.00
80289;PMS7003;69592;44.804;-0.550;2023-07-29T06:16:44;9.00;9.00;7.00
80289;PMS7003;69592;44.804;-0.550;2023-07-29T06:19:09;16.33;10.00;7.33
80289;PMS7003;69592;44.804;-0.550;2023-07-29T06:21:35;10.00;10.00;8.00
80289;PMS7003;69592;44.804;-0.550;2023-07-29T06:24:01;9.00;8.25;6.00
80289;PMS7003;69592;44.804;-0.550;2023-07-29T06:26:29;12.67;11.33;9.00
80289;PMS7003;69592;44.804;-0.550;2023-07-29T06:28:55;13.00;12.00;9.33
80289;PMS7003;69592;44.804;-0.550;2023-07-29T06:31:20;10.67;10.00;8.00
80289;PMS7003;69592;44.804;-0.550;2023-07-29T06:33:45;10.75;9.25;6.75
80289;PMS7003;69592;44.804;-0.550;2023-07-29T06:36:11;10.67;9.00;6.67
80289;PMS7003;69592;44.804;-0.550;2023-07-29T06:38:37;11.00;11.00;8.67
80289;PMS7003;69592;44.804;-0.550;2023-07-29T06:41:03;10.00;10.00;8.67
80289;PMS7003;69592;44.804;-0.550;2023-07-29T06:43:29;11.67;10.67;7.67
80289;PMS7003;69592;44.804;-0.550;2023-07-29T06:45:54;12.33;12.33;8.33
80289;PMS7003;69592;44.804;-0.550;2023-07-29T06:48:20;11.50;11.00;7.75
80289;PMS7003;69592;44.804;-0.550;2023-07-29T06:50:46;12.33;11.33;9.00
80289;PMS7003;69592;44.804;-0.550;2023-07-29T06:53:11;15.00;13.00;10.33
80289;PMS7003;69592;44.804;-0.550;2023-07-29T06:55:39;11.00;11.00;8.67
80289;PMS7003;69592;44.804;-0.550;2023-07-29T06:58:05;9.33;9.33;7.67
80289;PMS7003;69592;44.804;-0.550;2023-07-29T07:00:30;9.67;9.33;8.00
80289;PMS7003;69592;44.804;-0.550;2023-07-29T07:02:55;14.00;13.25;9.50
80289;PMS7003;69592;44.804;-0.550;2023-07-29T07:05:21;12.50;12.50;8.75
80289;PMS7003;69592;44.804;-0.550;2023-07-29T07:07:46;9.25;9.00;7.00
80289;PMS7003;69592;44.804;-0.550;2023-07-29T07:10:13;11.50;10.25;8.00
80289;PMS7003;69592;44.804;-0.550;2023-07-29T07:12:39;12.00;10.75;8.25
80289;PMS7003;69592;44.804;-0.550;2023-07-29T07:15:04;8.25;8.25;6.00
80289;PMS7003;69592;44.804;-0.550;2023-07-29T07:17:30;9.25;9.25;8.00
80289;PMS7003;69592;44.804;-0.550;2023-07-29T07:19:55;13.00;12.00;9.00
80289;PMS7003;69592;44.804;-0.550;2023-07-29T07:22:21;10.75;10.75;8.50
80289;PMS7003;69592;44.804;-0.550;2023-07-29T07:24:46;9.75;9.75;7.50
80289;PMS7003;69592;44.804;-0.550;2023-07-29T07:27:11;12.67;12.33;8.00
80289;PMS7003;69592;44.804;-0.550;2023-07-29T07:29:37;8.67;8.67;7.33
80289;PMS7003;69592;44.804;-0.550;2023-07-29T07:32:03;6.33;6.33;5.33
80289;PMS7003;69592;44.804;-0.550;2023-07-29T07:34:28;6.50;6.50;5.25
80289;PMS7003;69592;44.804;-0.550;2023-07-29T07:36:54;9.50;9.50;6.75
80289;PMS7003;69592;44.804;-0.550;2023-07-29T07:39:19;7.25;6.50;4.50
80289;PMS7003;69592;44.804;-0.550;2023-07-29T07:41:45;7.25;6.25;4.25
80289;PMS7003;69592;44.804;-0.550;2023-07-29T07:44:10;5.75;5.75;5.25
80289;PMS7003;69592;44.804;-0.550;2023-07-29T07:46:40;5.50;5.50;5.25
80289;PMS7003;69592;44.804;-0.550;2023-07-29T07:49:05;7.25;7.25;6.00
80289;PMS7003;69592;44.804;-0.550;2023-07-29T07:51:30;5.50;5.50;4.50
80289;PMS7003;69592;44.804;-0.550;2023-07-29T07:53:56;4.75;4.50;3.50
80289;PMS7003;69592;44.804;-0.550;2023-07-29T07:56:21;5.25;5.25;4.00
80289;PMS7003;69592;44.804;-0.550;2023-07-29T07:58:47;5.00;5.00;4.50
80289;PMS7003;69592;44.804;-0.550;2023-07-29T08:01:12;5.75;5.50;4.00
80289;PMS7003;69592;44.804;-0.550;2023-07-29T08:03:37;4.25;4.25;3.75
80289;PMS7003;69592;44.804;-0.550;2023-07-29T08:06:03;4.00;4.00;3.75
80289;PMS7003;69592;44.804;-0.550;2023-07-29T08:08:29;5.75;5.75;4.25
80289;PMS7003;69592;44.804;-0.550;2023-07-29T08:10:55;4.00;4.00;3.50
80289;PMS7003;69592;44.804;-0.550;2023-07-29T08:13:22;4.80;3.20;2.80
80289;PMS7003;69592;44.804;-0.550;2023-07-29T08:15:48;3.75;3.75;3.75
80289;PMS7003;69592;44.804;-0.550;2023-07-29T08:18:14;4.75;4.75;3.75
80289;PMS7003;69592;44.804;-0.550;2023-07-29T08:20:41;3.80;2.40;2.20
80289;PMS7003;69592;44.804;-0.550;2023-07-29T08:23:06;3.25;3.25;3.00
80289;PMS7003;69592;44.804;-0.550;2023-07-29T08:25:32;3.25;2.75;2.50
80289;PMS7003;69592;44.804;-0.550;2023-07-29T08:27:57;3.75;3.75;3.25
80289;PMS7003;69592;44.804;-0.550;2023-07-29T08:30:22;6.00;6.00;5.00
80289;PMS7003;69592;44.804;-0.550;2023-07-29T08:32:48;4.00;4.00;3.00
80289;PMS7003;69592;44.804;-0.550;2023-07-29T08:35:13;3.50;3.50;3.00
80289;PMS7003;69592;44.804;-0.550;2023-07-29T08:37:39;3.00;3.00;3.00
80289;PMS7003;69592;44.804;-0.550;2023-07-29T08:40:07;3.25;3.00;2.25
80289;PMS7003;69592;44.804;-0.550;2023-07-29T08:42:33;4.40;3.00;2.20
80289;PMS7003;69592;44.804;-0.550;2023-07-29T08:45:06;5.00;5.00;4.00
80289;PMS7003;69592;44.804;-0.550;2023-07-29T08:47:33;5.00;5.00;4.50
80289;PMS7003;69592;44.804;-0.550;2023-07-29T08:49:58;5.00;3.00;2.50
80289;PMS7003;69592;44.804;-0.550;2023-07-29T08:52:26;3.40;3.40;2.00
80289;PMS7003;69592;44.804;-0.550;2023-07-29T08:54:52;4.50;4.00;3.00
80289;PMS7003;69592;44.804;-0.550;2023-07-29T08:57:18;4.00;2.00;1.00
80289;PMS7003;69592;44.804;-0.550;2023-07-29T08:59:45;5.00;3.80;3.00
80289;PMS7003;69592;44.804;-0.550;2023-07-29T09:02:11;4.00;4.00;3.00
80289;PMS7003;69592;44.804;-0.550;2023-07-29T09:04:36;6.75;5.00;3.75
80289;PMS7003;69592;44.804;-0.550;2023-07-29T09:07:02;6.00;5.00;4.00
80289;PMS7003;69592;44.804;-0.550;2023-07-29T09:09:28;4.00;4.00;3.00
80289;PMS7003;69592;44.804;-0.550;2023-07-29T09:11:53;6.00;5.00;4.00
80289;PMS7003;69592;44.804;-0.550;2023-07-29T09:14:19;6.00;4.00;3.00
80289;PMS7003;69592;44.804;-0.550;2023-07-29T09:16:44;5.00;4.00;3.00
80289;PMS7003;69592;44.804;-0.550;2023-07-29T09:19:11;3.60;3.20;3.00
80289;PMS7003;69592;44.804;-0.550;2023-07-29T09:21:38;5.00;5.00;4.00
80289;PMS7003;69592;44.804;-0.550;2023-07-29T09:24:05;4.25;4.00;4.00
80289;PMS7003;69592;44.804;-0.550;2023-07-29T09:26:32;5.00;3.25;3.00
80289;PMS7003;69592;44.804;-0.550;2023-07-29T09:28:59;3.00;3.00;2.50
80289;PMS7003;69592;44.804;-0.550;2023-07-29T09:31:25;3.20;3.20;3.20
80289;PMS7003;69592;44.804;-0.550;2023-07-29T09:36:23;3.20;3.20;2.00
80289;PMS7003;69592;44.804;-0.550;2023-07-29T09:38:52;4.00;3.00;3.00
80289;PMS7003;69592;44.804;-0.550;2023-07-29T09:41:18;3.40;3.40;2.60
80289;PMS7003;69592;44.804;-0.550;2023-07-29T09:43:44;3.00;3.00;2.50
80289;PMS7003;69592;44.804;-0.550;2023-07-29T09:46:09;3.00;2.00;2.00
80289;PMS7003;69592;44.804;-0.550;2023-07-29T09:48:35;5.00;4.00;3.00
80289;PMS7003;69592;44.804;-0.550;2023-07-29T09:51:13;4.20;4.00;3.40
80289;PMS7003;69592;44.804;-0.550;2023-07-29T09:53:43;3.00;3.00;2.00
80289;PMS7003;69592;44.804;-0.550;2023-07-29T09:56:10;3.00;3.00;2.40
80289;PMS7003;69592;44.804;-0.550;2023-07-29T09:58:37;2.00;2.00;2.00
80289;PMS7003;69592;44.804;-0.550;2023-07-29T10:01:03;2.00;2.00;2.00
80289;PMS7003;69592;44.804;-0.550;2023-07-29T10:03:30;2.80;2.20;2.00
80289;PMS7003;69592;44.804;-0.550;2023-07-29T10:05:56;3.00;3.00;2.25
80289;PMS7003;69592;44.804;-0.550;2023-07-29T10:08:25;2.80;2.80;2.60
80289;PMS7003;69592;44.804;-0.550;2023-07-29T10:10:53;3.40;3.40;3.00
80289;PMS7003;69592;44.804;-0.550;2023-07-29T10:13:19;3.00;2.00;1.60
80289;PMS7003;69592;44.804;-0.550;2023-07-29T10:15:45;2.75;2.75;2.00
80289;PMS7003;69592;44.804;-0.550;2023-07-29T10:18:11;4.00;4.00;3.60
80289;PMS7003;69592;44.804;-0.550;2023-07-29T10:20:37;3.50;3.50;2.50
80289;PMS7003;69592;44.804;-0.550;2023-07-29T10:23:05;3.40;3.40;3.00
80289;PMS7003;69592;44.804;-0.550;2023-07-29T10:25:41;3.00;3.00;2.60
80289;PMS7003;69592;44.804;-0.550;2023-07-29T10:28:11;3.80;3.80;3.00
80289;PMS7003;69592;44.804;-0.550;2023-07-29T10:30:37;5.00;3.00;2.40
80289;PMS7003;69592;44.804;-0.550;2023-07-29T10:33:03;4.25;4.25;3.00
80289;PMS7003;69592;44.804;-0.550;2023-07-29T10:35:31;2.00;2.00;2.00
80289;PMS7003;69592;44.804;-0.550;2023-07-29T10:37:58;4.80;3.80;3.00
80289;PMS7003;69592;44.804;-0.550;2023-07-29T10:40:24;3.50;3.00;2.00
80289;PMS7003;69592;44.804;-0.550;2023-07-29T10:45:57;4.00;4.00;3.20
80289;PMS7003;69592;44.804;-0.550;2023-07-29T10:48:40;4.20;4.20;3.00
80289;PMS7003;69592;44.804;-0.550;2023-07-29T10:51:40;1.80;1.80;1.80
80289;PMS7003;69592;44.804;-0.550;2023-07-29T10:58:55;4.20;4.20;2.80
80289;PMS7003;69592;44.804;-0.550;2023-07-29T11:01:29;3.60;3.60;3.00
80289;PMS7003;69592;44.804;-0.550;2023-07-29T11:12:40;5.60;3.00;2.60
80289;PMS7003;69592;44.804;-0.550;2023-07-29T11:17:37;3.00;3.00;2.60
80289;PMS7003;69592;44.804;-0.550;2023-07-29T11:20:05;3.00;3.00;2.60
80289;PMS7003;69592;44.804;-0.550;2023-07-29T11:22:32;2.60;2.20;2.00
80289;PMS7003;69592;44.804;-0.550;2023-07-29T11:24:58;2.50;2.50;2.00
80289;PMS7003;69592;44.804;-0.550;2023-07-29T11:27:23;5.00;4.50;4.00
80289;PMS7003;69592;44.804;-0.550;2023-07-29T11:29:49;3.50;3.50;3.00
80289;PMS7003;69592;44.804;-0.550;2023-07-29T11:32:15;3.00;3.00;3.00
80289;PMS7003;69592;44.804;-0.550;2023-07-29T11:34:41;2.40;2.40;2.20
80289;PMS7003;69592;44.804;-0.550;2023-07-29T11:37:08;3.00;3.00;3.00
80289;PMS7003;69592;44.804;-0.550;2023-07-29T11:39:39;3.40;3.00;2.80
80289;PMS7003;69592;44.804;-0.550;2023-07-29T11:42:10;2.80;2.80;2.40
80289;PMS7003;69592;44.804;-0.550;2023-07-29T11:44:36;2.60;2.60;1.80
80289;PMS7003;69592;44.804;-0.550;2023-07-29T11:47:02;3.75;3.75;3.50
80289;PMS7003;69592;44.804;-0.550;2023-07-29T11:49:30;1.80;1.80;1.60
80289;PMS7003;69592;44.804;-0.550;2023-07-29T11:51:58;2.80;2.80;2.20
80289;PMS7003;69592;44.804;-0.550;2023-07-29T11:54:23;3.25;3.25;2.50
80289;PMS7003;69592;44.804;-0.550;2023-07-29T11:56:50;2.60;2.60;2.20
80289;PMS7003;69592;44.804;-0.550;2023-07-29T11:59:15;2.75;2.75;2.75
80289;PMS7003;69592;44.804;-0.550;2023-07-29T12:01:44;3.40;3.40;2.80
80289;PMS7003;69592;44.804;-0.550;2023-07-29T12:04:10;2.00;1.80;1.20
80289;PMS7003;69592;44.804;-0.550;2023-07-29T12:06:36;2.50;2.50;2.00
80289;PMS7003;69592;44.804;-0.550;2023-07-29T12:09:03;2.80;1.80;1.80
80289;PMS7003;69592;44.804;-0.550;2023-07-29T12:11:28;2.25;2.25;2.00
80289;PMS7003;69592;44.804;-0.550;2023-07-29T12:13:54;1.75;1.50;1.00
80289;PMS7003;69592;44.804;-0.550;2023-07-29T12:16:19;2.00;2.00;2.00
80289;PMS7003;69592;44.804;-0.550;2023-07-29T12:18:44;3.00;3.00;3.00
80289;PMS7003;69592;44.804;-0.550;2023-07-29T12:21:10;1.00;1.00;1.00
80289;PMS7003;69592;44.804;-0.550;2023-07-29T12:23:35;2.00;2.00;2.00
80289;PMS7003;69592;44.804;-0.550;2023-07-29T12:26:01;2.00;2.00;2.00
80289;PMS7003;69592;44.804;-0.550;2023-07-29T12:28:26;3.25;3.00;3.00
80289;PMS7003;69592;44.804;-0.550;2023-07-29T12:30:55;1.00;1.00;1.00
80289;PMS7003;69592;44.804;-0.550;2023-07-29T12:33:31;2.80;2.80;2.80
80289;PMS7003;69592;44.804;-0.550;2023-07-29T12:35:58;1.20;1.20;1.00
80289;PMS7003;69592;44.804;-0.550;2023-07-29T12:38:25;1.00;1.00;1.00
80289;PMS7003;69592;44.804;-0.550;2023-07-29T12:40:51;4.00;2.00;1.80
80289;PMS7003;69592;44.804;-0.550;2023-07-29T12:43:17;3.00;3.00;3.00
80289;PMS7003;69592;44.804;-0.550;2023-07-29T12:45:45;2.60;2.00;2.00
80289;PMS7003;69592;44.804;-0.550;2023-07-29T12:48:11;2.00;2.00;2.00
80289;PMS7003;69592;44.804;-0.550;2023-07-29T12:50:37;2.00;2.00;1.50
80289;PMS7003;69592;44.804;-0.550;2023-07-29T12:53:04;1.80;1.80;1.40
80289;PMS7003;69592;44.804;-0.550;2023-07-29T12:55:30;1.80;1.80;1.80
80289;PMS7003;69592;44.804;-0.550;2023-07-29T12:57:55;4.00;2.25;2.00
80289;PMS7003;69592;44.804;-0.550;2023-07-29T13:00:21;2.00;2.00;1.75
80289;PMS7003;69592;44.804;-0.550;2023-07-29T13:02:47;1.80;1.80;1.80
80289;PMS7003;69592;44.804;-0.550;2023-07-29T13:05:12;3.50;2.00;2.00
80289;PMS7003;69592;44.804;-0.550;2023-07-29T13:07:41;3.25;3.25;2.50
80289;PMS7003;69592;44.804;-0.550;2023-07-29T13:10:08;1.80;1.80;1.40
80289;PMS7003;69592;44.804;-0.550;2023-07-29T13:12:34;0.20;0.20;0.20
80289;PMS7003;69592;44.804;-0.550;2023-07-29T13:14:59;1.00;1.00;1.00
80289;PMS7003;69592;44.804;-0.550;2023-07-29T13:17:25;1.75;1.00;1.00
80289;PMS7003;69592;44.804;-0.550;2023-07-29T13:19:50;1.00;1.00;1.00
80289;PMS7003;69592;44.804;-0.550;2023-07-29T13:22:16;1.00;1.00;1.00
80289;PMS7003;69592;44.804;-0.550;2023-07-29T13:24:42;0.40;0.40;0.00
80289;PMS7003;69592;44.804;-0.550;2023-07-29T13:27:07;1.00;1.00;1.00
80289;PMS7003;69592;44.804;-0.550;2023-07-29T13:29:32;0.00;0.00;0.00
80289;PMS7003;69592;44.804;-0.550;2023-07-29T13:31:58;1.75;1.75;1.00
80289;PMS7003;69592;44.804;-0.550;2023-07-29T13:34:23;1.00;1.00;1.00
80289;PMS7003;69592;44.804;-0.550;2023-07-29T13:36:49;0.00;0.00;0.00
80289;PMS7003;69592;44.804;-0.550;2023-07-29T13:39:14;1.00;1.00;1.00
80289;PMS7003;69592;44.804;-0.550;2023-07-29T13:41:40;0.60;0.60;0.60
80289;PMS7003;69592;44.804;-0.550;2023-07-29T13:44:06;1.00;1.00;1.00
80289;PMS7003;69592;44.804;-0.550;2023-07-29T13:46:31;1.75;1.75;1.00
80289;PMS7003;69592;44.804;-0.550;2023-07-29T13:48:56;2.50;1.00;1.00
80289;PMS7003;69592;44.804;-0.550;2023-07-29T13:51:22;1.00;1.00;1.00
80289;PMS7003;69592;44.804;-0.550;2023-07-29T13:53:47;0.25;0.25;0.00
80289;PMS7003;69592;44.804;-0.550;2023-07-29T13:56:13;1.00;1.00;1.00
80289;PMS7003;69592;44.804;-0.550;2023-07-29T13:58:38;1.50;1.50;1.00
80289;PMS7003;69592;44.804;-0.550;2023-07-29T14:01:04;1.00;1.00;1.00
80289;PMS7003;69592;44.804;-0.550;2023-07-29T14:03:30;1.00;1.00;1.00
80289;PMS7003;69592;44.804;-0.550;2023-07-29T14:05:55;2.25;2.25;2.00
80289;PMS7003;69592;44.804;-0.550;2023-07-29T14:08:20;0.00;0.00;0.00
80289;PMS7003;69592;44.804;-0.550;2023-07-29T14:10:48;1.20;1.20;1.20
80289;PMS7003;69592;44.804;-0.550;2023-07-29T14:13:17;1.00;1.00;1.00
80289;PMS7003;69592;44.804;-0.550;2023-07-29T14:15:42;1.25;1.25;1.25
80289;PMS7003;69592;44.804;-0.550;2023-07-29T14:18:08;4.00;2.25;1.25
80289;PMS7003;69592;44.804;-0.550;2023-07-29T14:20:33;1.25;1.25;1.25
80289;PMS7003;69592;44.804;-0.550;2023-07-29T14:22:58;2.00;2.00;2.00
80289;PMS7003;69592;44.804;-0.550;2023-07-29T14:25:24;1.00;1.00;1.00